Time;durP1;ratioP1;P1;durP2;ratioP2;P2;SDS_P1;SDS_P2;PMS_P1;PMS_P2;Temp;Humidity;BMP_temperature;BMP_pressure;BME280_temperature;BME280_humidity;BME280_pressure;Samples;Min_cycle;Max_cycle;Signal;HPM_P1;HPM_P2
2024/01/03 00:01:35;;;;;;;7.88;2.97;;;;;;;5.18;79.37;97964.81;31352804;27;96995;-65
2024/01/03 00:16:38;;;;;;;4.78;2.50;;;;;;;5.19;79.82;97957.72;31349818;27;97149;-67
2024/01/03 00:31:43;;;;;;;5.03;3.00;;;;;;;5.17;80.19;97930.69;31349414;27;96981;-65
2024/01/03 00:46:44;;;;;;;3.57;2.30;;;;;;;5.08;79.99;97927.38;31347622;27;97132;-65
2024/01/03 01:01:45;;;;;;;4.67;2.37;;;;;;;5.10;80.23;97909.53;31346731;27;96716;-65
2024/01/03 01:16:45;;;;;;;4.03;2.33;;;;;;;5.09;80.64;97913.16;31343774;27;126573;-64
2024/01/03 01:31:47;;;;;;;4.72;2.25;;;;;;;5.05;80.43;97896.09;31343031;27;97167;-65
2024/01/03 01:46:48;;;;;;;4.87;2.50;;;;;;;5.09;80.76;97877.03;31339158;27;97264;-65
2024/01/03 02:01:48;;;;;;;2.92;2.13;;;;;;;5.08;80.73;97859.59;31339762;27;96715;-65
2024/01/03 02:16:48;;;;;;;4.45;2.47;;;;;;;5.02;80.81;97843.69;31337979;27;119131;-65
2024/01/03 02:31:49;;;;;;;5.28;2.50;;;;;;;5.23;81.48;97834.91;31336623;27;127336;-64
2024/01/03 02:46:49;;;;;;;7.90;2.28;;;;;;;5.36;81.39;97824.41;31335829;27;97018;-64
2024/01/03 03:01:50;;;;;;;5.60;2.20;;;;;;;5.54;81.98;97841.59;31357901;27;116008;-65
2024/01/03 03:16:50;;;;;;;5.60;2.50;;;;;;;5.73;82.25;97814.44;31375955;27;96679;-65
2024/01/03 03:31:50;;;;;;;3.03;1.48;;;;;;;5.84;82.14;97805.13;31373356;27;125318;-65
2024/01/03 03:46:50;;;;;;;2.38;1.50;;;;;;;5.95;81.73;97795.00;31371127;27;127010;-65
2024/01/03 04:01:51;;;;;;;2.72;1.30;;;;;;;6.04;81.84;97781.44;31369639;27;125536;-65
2024/01/03 04:16:51;;;;;;;6.18;1.42;;;;;;;6.10;82.34;97788.53;31352886;27;97642;-64
2024/01/03 04:31:51;;;;;;;1.70;0.90;;;;;;;6.36;82.05;97807.31;31346800;27;125258;-64
2024/01/03 04:46:52;;;;;;;2.13;0.98;;;;;;;6.73;81.95;97826.25;31344424;27;97057;-65
2024/01/03 05:01:52;;;;;;;1.17;0.60;;;;;;;7.19;81.63;97817.47;31343644;27;125435;-65
2024/01/03 05:16:52;;;;;;;2.95;0.70;;;;;;;7.48;81.00;97825.94;31341334;27;126841;-65
2024/01/03 05:31:53;;;;;;;0.47;0.47;;;;;;;7.60;80.80;97834.88;31340157;27;124590;-65
2024/01/03 05:46:53;;;;;;;2.95;0.60;;;;;;;7.83;80.53;97857.41;31337848;27;97238;-66
2024/01/03 06:01:53;;;;;;;1.45;0.75;;;;;;;7.96;79.77;97869.81;31333952;27;127594;-65
2024/01/03 06:16:53;;;;;;;2.03;0.93;;;;;;;8.00;79.62;97883.47;31335865;27;126844;-65
2024/01/03 06:31:54;;;;;;;3.50;1.40;;;;;;;8.04;79.24;97909.34;31333463;27;125509;-65
2024/01/03 06:46:54;;;;;;;3.08;1.98;;;;;;;8.17;78.56;97934.19;31312931;27;124497;-65
2024/01/03 07:01:56;;;;;;;2.33;1.23;;;;;;;8.12;77.83;97938.28;31330318;27;97156;-65
2024/01/03 07:16:56;;;;;;;1.60;1.00;;;;;;;8.14;77.82;97965.41;31329607;27;96615;-65
2024/01/03 07:31:56;;;;;;;2.05;1.00;;;;;;;8.18;77.46;97967.66;31328823;27;124528;-64
2024/01/03 07:46:56;;;;;;;3.83;1.40;;;;;;;8.42;77.17;97990.00;31336038;27;96766;-65
2024/01/03 08:01:57;;;;;;;2.08;1.02;;;;;;;8.81;76.11;97981.06;31347676;27;125319;-66
2024/01/03 08:16:57;;;;;;;2.92;0.80;;;;;;;10.70;75.00;97988.94;31347891;27;97956;-65
2024/01/03 08:31:58;;;;;;;0.98;0.45;;;;;;;14.53;68.88;97999.63;31351589;27;126900;-65
2024/01/03 08:46:58;;;;;;;1.63;0.50;;;;;;;12.05;66.14;98014.41;31343403;27;97042;-66
2024/01/03 09:01:58;;;;;;;4.80;0.95;;;;;;;11.31;66.10;98026.22;31339870;27;124596;-66
2024/01/03 09:17:00;;;;;;;3.07;1.60;;;;;;;12.93;64.02;98052.53;31339673;27;98690;-66
2024/01/03 09:32:00;;;;;;;3.83;2.00;;;;;;;12.35;63.07;98070.31;31335701;27;108483;-64
2024/01/03 09:47:01;;;;;;;4.32;1.13;;;;;;;12.82;62.13;98054.19;31335717;27;96785;-67
2024/01/03 10:02:01;;;;;;;2.28;1.00;;;;;;;13.15;60.56;98055.34;31338114;27;96755;-65
2024/01/03 10:17:08;;;;;;;2.53;1.30;;;;;;;12.51;61.00;98055.44;31336041;27;96681;-65
2024/01/03 10:32:14;;;;;;;3.17;1.30;;;;;;;12.52;59.97;98055.19;31332502;27;96639;-65
2024/01/03 10:47:14;;;;;;;3.07;1.00;;;;;;;12.46;59.66;98050.78;31332627;27;97619;-65
2024/01/03 11:02:36;;;;;;;2.47;1.20;;;;;;;12.13;60.03;98054.88;31331170;27;125506;-65
2024/01/03 11:17:36;;;;;;;3.23;1.00;;;;;;;13.15;57.70;98043.81;31335689;27;97441;-65
2024/01/03 11:32:37;;;;;;;2.08;1.67;;;;;;;12.89;57.40;98030.00;31348710;27;126761;-65
2024/01/03 11:47:42;;;;;;;2.50;1.20;;;;;;;19.54;48.44;98017.75;31349495;27;97314;-65
2024/01/03 12:02:52;;;;;;;2.20;1.03;;;;;;;-147.20;100.00;63046.97;31512897;27;98671;-66
2024/01/03 12:17:52;;;;;;;3.25;1.55;;;;;;;14.20;49.13;98028.16;31922449;27;20515;-66
2024/01/03 12:33:11;;;;;;;6.47;1.48;;;;;;;12.50;52.32;98024.41;31488394;27;96668;-66
2024/01/03 12:48:11;;;;;;;3.58;1.50;;;;;;;11.46;55.03;98026.59;31801970;27;20488;-65
2024/01/03 13:03:12;;;;;;;4.72;1.60;;;;;;;10.82;56.72;98019.09;31747069;28;94667;-66
2024/01/03 13:18:13;;;;;;;4.03;1.48;;;;;;;10.45;57.97;98027.13;31750144;28;21875;-65
2024/01/03 13:33:13;;;;;;;3.63;1.48;;;;;;;10.31;59.50;98036.28;31746055;28;20040;-66
2024/01/03 13:48:14;;;;;;;4.97;1.52;;;;;;;10.14;59.33;98028.88;31903912;27;40815;-66
2024/01/03 14:03:15;;;;;;;3.33;1.67;;;;;;;9.98;60.73;98045.41;32002900;27;20045;-67
2024/01/03 14:18:16;;;;;;;2.97;1.15;;;;;;;9.78;60.95;98056.22;31907276;27;96682;-66
2024/01/03 14:33:16;;;;;;;3.70;1.75;;;;;;;-147.20;100.00;63046.97;31991354;27;112032;-67
2024/01/03 14:48:16;;;;;;;3.58;1.60;;;;;;;-147.20;100.00;63046.97;32045171;27;20036;-66
2024/01/03 15:03:17;;;;;;;5.88;2.20;;;;;;;-147.20;100.00;63046.97;32041418;27;34495;-66
2024/01/03 15:18:17;;;;;;;6.05;1.58;;;;;;;-147.20;100.00;63046.97;32042875;27;20023;-67
2024/01/03 15:33:18;;;;;;;4.97;1.55;;;;;;;-147.20;100.00;63046.97;32041384;27;20130;-66
2024/01/03 15:48:18;;;;;;;3.72;1.67;;;;;;;-147.20;100.00;63046.97;32040760;27;20043;-66
2024/01/03 16:03:18;;;;;;;3.25;1.77;;;;;;;-147.20;100.00;63046.97;32041567;27;20027;-65
2024/01/03 16:18:18;;;;;;;5.13;2.28;;;;;;;-147.20;100.00;63046.97;32057084;27;33923;-68
2024/01/03 16:33:19;;;;;;;3.00;1.55;;;;;;;-147.20;100.00;63046.97;32056682;27;33400;-65
2024/01/03 16:48:19;;;;;;;4.20;2.05;;;;;;;-147.20;100.00;63046.97;32053645;27;20504;-66
2024/01/03 17:03:22;;;;;;;4.25;2.05;;;;;;;-147.20;100.00;63046.97;32054388;27;35608;-66
2024/01/03 17:18:22;;;;;;;5.33;2.27;;;;;;;-147.20;100.00;63046.97;32053154;27;20386;-66
2024/01/03 17:33:23;;;;;;;6.53;1.85;;;;;;;-147.20;100.00;63046.97;32050135;27;20054;-66
2024/01/03 17:48:23;;;;;;;6.47;2.58;;;;;;;-147.20;100.00;63046.97;32049556;27;20083;-66
2024/01/03 18:03:26;;;;;;;5.82;2.28;;;;;;;-147.20;100.00;63046.97;32048429;27;34782;-67
2024/01/03 18:18:26;;;;;;;5.15;2.90;;;;;;;-147.20;100.00;63046.97;32046557;27;20060;-66
2024/01/03 18:33:26;;;;;;;5.28;2.30;;;;;;;-147.20;100.00;63046.97;32043512;27;20468;-67
2024/01/03 18:48:27;;;;;;;6.00;2.95;;;;;;;-147.20;100.00;63046.97;32042541;27;20050;-68
2024/01/03 19:03:27;;;;;;;6.47;2.60;;;;;;;-147.20;100.00;63046.97;32041607;27;34655;-65
2024/01/03 19:18:28;;;;;;;3.90;1.90;;;;;;;-147.20;100.00;63046.97;32040839;27;33488;-67
2024/01/03 19:33:28;;;;;;;7.53;2.33;;;;;;;-147.20;100.00;63046.97;32040186;27;20035;-66
2024/01/03 19:48:29;;;;;;;5.05;1.98;;;;;;;-147.20;100.00;63046.97;32059325;27;34069;-66
2024/01/03 20:03:29;;;;;;;4.15;1.73;;;;;;;-147.20;100.00;63046.97;32063875;27;20539;-66
2024/01/03 20:18:29;;;;;;;3.58;1.40;;;;;;;-147.20;100.00;63046.97;32036765;27;97109;-66
2024/01/03 20:33:30;;;;;;;3.45;1.30;;;;;;;-147.20;100.00;63046.97;32056894;27;35982;-66
2024/01/03 20:48:31;;;;;;;3.90;1.50;;;;;;;-147.20;100.00;63046.97;32055526;27;20045;-66
2024/01/03 21:03:39;;;;;;;3.00;1.48;;;;;;;-147.20;100.00;63046.97;32055626;27;20047;-66
2024/01/03 21:18:39;;;;;;;4.22;1.58;;;;;;;-147.20;100.00;63046.97;32052203;27;20031;-67
2024/01/03 21:33:40;;;;;;;3.60;1.30;;;;;;;-147.20;100.00;63046.97;32052088;27;20619;-67
2024/01/03 21:48:40;;;;;;;2.60;1.10;;;;;;;-147.20;100.00;63046.97;32052660;27;20063;-67
2024/01/03 22:03:40;;;;;;;2.30;1.00;;;;;;;-147.20;100.00;63046.97;32049496;27;35883;-67
2024/01/03 22:18:41;;;;;;;2.80;1.08;;;;;;;-147.20;100.00;63046.97;32048208;27;35888;-66
2024/01/03 22:33:41;;;;;;;4.13;1.52;;;;;;;-147.20;100.00;63046.97;32047291;27;34675;-66
2024/01/03 22:48:41;;;;;;;5.80;1.20;;;;;;;-147.20;100.00;63046.97;32046079;27;33470;-67
2024/01/03 23:03:41;;;;;;;2.10;1.17;;;;;;;-147.20;100.00;63046.97;32045822;27;35724;-67
2024/01/03 23:18:42;;;;;;;2.20;0.90;;;;;;;-147.20;100.00;63046.97;32056427;27;36151;-67
2024/01/03 23:33:42;;;;;;;2.30;1.00;;;;;;;-147.20;100.00;63046.97;32047093;27;35809;-67
2024/01/03 23:48:43;;;;;;;3.70;1.40;;;;;;;-147.20;100.00;63046.97;32065077;27;20043;-67
